• Join FlightAware (Why Join?)
  • Login
  • US Flag GB Flag 
00:41 EDT


 

Airport Tracker/Info


-or-


 

Live Flight TrackerFlight Track Log ✈ N700QA ✈ 25-Mar-2013 ✈ KLAX - KIND

Flight Track Log - Related Links

Times and Time Zones

All times are in EDT time to prevent confusion due to time zone crossing. See the N700QA flight status page for this flight to view local times or setup timezone preferences in your user account.

Time Position Orientation Groundspeed Altitude Reporting Facility
EDT Latitude Longitude Course Direction KTS MPH feet Rate Location/Type
13:10 33.8308 -118.5358 172° South 263 303 6,500  Level Los Angeles Center
13:11 33.7556 -118.5239 172° South 276 318 8,700 1,980 Climbing Los Angeles Center
13:12 33.6772 -118.5022 167° South 295 339 10,700 1,680 Climbing Los Angeles Center
13:13 33.6431 -118.4111 114° Southeast 316 364 12,200 1,860 Climbing Los Angeles Center
13:14 33.6383 -118.2847 93° East 323 372 14,600 1,980 Climbing Los Angeles Center
13:15 33.6447 -118.1744 86° East 337 388 16,400 1,560 Climbing Los Angeles Center
13:16 33.6428 -118.0611 91° East 340 391 17,900 1,260 Climbing Los Angeles Center
13:17 33.6411 -117.9433 91° East 350 403 19,100 1,620 Climbing Los Angeles Center
13:18 33.6431 -117.7992 89° East 360 414 21,300 1,560 Climbing Los Angeles Center
13:19 33.6417 -117.6764 91° East 365 420 22,400 1,200 Climbing Los Angeles Center
13:20 33.6406 -117.5519 91° East 373 429 23,900 1,260 Climbing Los Angeles Center
13:21 33.6406 -117.4244 90° East 381 438 25,100 1,020 Climbing Los Angeles Center
13:22 33.6397 -117.2961 90° East 386 444 26,100 960 Climbing Los Angeles Center
13:23 33.6397 -117.1358 90° East 397 457 27,200 780 Climbing Los Angeles Center
13:24 33.6378 -117.0008 91° East 403 464 27,800 720 Climbing Los Angeles Center
13:25 33.6369 -116.8625 90° East 411 473 28,800 960 Climbing Los Angeles Center
13:26 33.6364 -116.7211 90° East 413 475 29,900 960 Climbing Los Angeles Center
13:28 33.6347 -116.5847 91° East 410 472 30,800 780 Climbing Los Angeles Center
13:29 33.6331 -116.4464 91° East 412 474 31,600 780 Climbing Los Angeles Center
13:30 33.6306 -116.3083 91° East 412 474 32,500 900 Climbing Los Angeles Center
13:31 33.6308 -116.1522 90° East 406 467 33,500 900 Climbing Los Angeles Center
13:32 33.6742 -116.0231 68° East 388 447 34,400 660 Climbing Los Angeles Center
13:33 33.7139 -115.9025 68° East 391 450 34,900 240 Climbing Los Angeles Center
13:34 33.7553 -115.7800 68° East 394 453 35,000 60 Climbing Los Angeles Center
13:35 33.7969 -115.6511 69° East 408 470 35,100  Climbing Los Angeles Center
13:36 33.8381 -115.5186 69° East 419 482 35,100  Level Los Angeles Center
13:37 33.8797 -115.3867 69° East 422 486 35,100  Level Los Angeles Center
13:38 33.9311 -115.2244 69° East 429 494 35,100  Level Los Angeles Center
13:39 33.9742 -115.0878 69° East 436 502 35,100  Level Los Angeles Center
13:40 34.0175 -114.9503 69° East 439 505 35,100  Level Los Angeles Center
13:41 34.0631 -114.8114 68° East 446 513 35,100  Level Los Angeles Center
13:42 34.1086 -114.6731 68° East 453 521 35,100  Level Los Angeles Center
13:43 34.1494 -114.5331 71° East 447 514 35,100  Level Los Angeles Center
13:44 34.1978 -114.3653 71° East 445 512 35,100  Level Los Angeles Center
13:45 34.2244 -114.2558 74° East 446 513 35,100  Level Albuquerque Center
13:46 34.2656 -114.1122 71° East 448 516 35,100  Level Albuquerque Center
13:47 34.3042 -113.9731 71° East 442 509 35,100  Level Albuquerque Center
13:48 34.3433 -113.8314 71° East 443 510 35,100  Level Albuquerque Center
13:49 34.3911 -113.6619 71° East 444 511 35,100  Level Albuquerque Center
13:50 34.4253 -113.5292 73° East 439 505 35,100  Level Albuquerque Center
13:51 34.4625 -113.3917 72° East 434 499 35,100  Level Albuquerque Center
13:52 34.4994 -113.2503 72° East 440 506 35,100  Level Albuquerque Center
13:53 34.5375 -113.1108 72° East 440 506 35,100  Level Albuquerque Center
13:54 34.5825 -112.9444 72° East 437 503 35,100  Level Albuquerque Center
13:55 34.6194 -112.8044 72° East 439 505 35,100  Level Albuquerque Center
13:56 34.6558 -112.6647 72° East 440 506 35,100  Level Albuquerque Center
13:57 34.6936 -112.5283 71° East 436 502 35,100 -60 Level Albuquerque Center
13:58 34.7275 -112.3878 74° East 437 503 35,000  Descending Albuquerque Center
13:59 34.7633 -112.2192 75° East 436 502 35,100  Climbing Albuquerque Center
14:00 34.7964 -112.0772 74° East 437 503 35,100  Level Albuquerque Center
14:01 34.8281 -111.9350 75° East 440 506 35,100  Level Albuquerque Center
14:02 34.8600 -111.7922 75° East 440 506 35,100  Level Albuquerque Center
14:03 34.8947 -111.6381 75° East 443 510 35,100  Level Albuquerque Center
14:04 34.9269 -111.4942 75° East 441 507 35,100 -60 Level Albuquerque Center
14:06 34.9586 -111.3494 75° East 441 507 35,000  Descending Albuquerque Center
14:07 34.9911 -111.2033 75° East 445 512 35,100  Climbing Albuquerque Center
14:08 35.0297 -111.0261 75° East 450 518 35,100  Level Albuquerque Center
14:09 35.0606 -110.8781 76° East 451 519 35,100  Level Albuquerque Center
14:10 35.0961 -110.7153 75° East 447 514 35,100  Level Albuquerque Center
14:11 35.1247 -110.5747 76° East 446 513 35,100  Level Albuquerque Center
14:12 35.1567 -110.4361 74° East 443 510 35,100  Level Albuquerque Center
14:13 35.1925 -110.2719 75° East 446 513 35,100  Level Albuquerque Center
14:14 35.2231 -110.1317 75° East 448 516 35,100  Level Albuquerque Center
14:15 35.2581 -109.9661 75° East 449 517 35,100  Level Albuquerque Center
14:16 35.2886 -109.8231 75° East 453 521 35,100  Level Albuquerque Center
14:17 35.3203 -109.6522 77° East 459 528 35,100  Level Albuquerque Center
14:18 35.3506 -109.5086 75° East 458 527 35,100  Level Albuquerque Center
14:19 35.3858 -109.3408 75° East 457 526 35,100  Level Albuquerque Center
14:20 35.4142 -109.1956 77° East 458 527 35,100  Level Albuquerque Center
14:21 35.4483 -109.0275 76° East 458 527 35,100  Level Albuquerque Center
14:22 35.4775 -108.8825 76° East 459 528 35,100 360 Level Albuquerque Center
14:23 35.5186 -108.7189 73° East 454 522 35,900 720 Climbing Albuquerque Center
14:24 35.5586 -108.5839 70° East 444 511 36,600 480 Climbing Albuquerque Center
14:25 35.6006 -108.4258 72° East 439 505 37,000 180 Climbing Albuquerque Center
14:26 35.6381 -108.2894 71° East 441 507 37,000  Level Albuquerque Center
14:27 35.6803 -108.1244 72° East 451 519 37,100  Climbing Albuquerque Center
14:28 35.7172 -107.9847 72° East 452 520 37,100  Level Albuquerque Center
14:29 35.7544 -107.8436 72° East 454 522 37,100 -60 Level Albuquerque Center
14:30 35.7964 -107.6794 72° East 452 520 37,000  Descending Albuquerque Center
14:31 35.8336 -107.5378 72° East 454 522 37,100  Climbing Albuquerque Center
14:32 35.8758 -107.3736 72° East 452 520 37,000 -60 Descending Albuquerque Center
14:33 35.9122 -107.2333 72° East 450 518 37,000  Level Albuquerque Center
14:34 35.9544 -107.0764 72° East 452 520 37,000  Level Albuquerque Center
14:35 35.9917 -106.9289 73° East 450 518 37,000  Level Albuquerque Center
14:36 36.0294 -106.7808 72° East 451 519 37,100  Climbing Albuquerque Center
14:37 36.0681 -106.6308 72° East 454 522 37,000 -60 Descending Albuquerque Center
14:39 36.1047 -106.4828 73° East 453 521 37,000  Level Albuquerque Center
14:40 36.1500 -106.3044 72° East 453 521 37,000  Level Albuquerque Center
14:41 36.1833 -106.1519 75° East 456 525 37,000  Level Albuquerque Center
14:42 36.1947 -105.9897 85° East 468 539 37,100  Climbing Albuquerque Center
14:43 36.2097 -105.8219 84° East 475 547 37,000 -60 Descending Albuquerque Center
14:44 36.2300 -105.6658 81° East 474 545 37,000  Level Albuquerque Center
14:45 36.2517 -105.4997 81° East 469 540 37,000  Level Albuquerque Center
14:46 36.3017 -105.3558 67° East 454 522 37,000  Level Albuquerque Center
14:47 36.3497 -105.2108 68° East 449 517 37,000  Level Albuquerque Center
14:48 36.4014 -105.0339 70° East 459 528 37,100  Climbing Albuquerque Center
14:49 36.4489 -104.8836 69° East 462 532 37,000 -60 Descending Albuquerque Center
14:50 36.4928 -104.7342 70° East 459 528 37,000  Level Albuquerque Center
14:51 36.5372 -104.5842 70° East 457 526 37,000  Level Albuquerque Center
14:52 36.5817 -104.4350 70° East 456 525 37,000  Level Albuquerque Center
14:53 36.6250 -104.2867 70° East 452 520 37,000  Level Albuquerque Center
14:54 36.6694 -104.1383 69° East 454 522 37,000  Level Albuquerque Center
14:55 36.7175 -103.9794 69° East 453 521 37,000  Level Albuquerque Center
14:56 36.7581 -103.8403 70° East 450 518 37,000  Level Albuquerque Center
14:57 36.8053 -103.6756 70° East 453 521 37,000  Level Albuquerque Center
14:58 36.8458 -103.5339 70° East 454 522 37,000  Level Albuquerque Center
14:59 36.8931 -103.3683 70° East 455 524 37,000  Level Albuquerque Center
15:00 36.9331 -103.2261 71° East 455 524 37,000  Level Albuquerque Center
15:01 36.9797 -103.0589 71° East 457 526 37,000  Level Albuquerque Center
15:02 37.0206 -102.9150 70° East 458 527 37,000  Level Albuquerque Center
15:03 37.0678 -102.7444 71° East 462 532 37,000  Level Albuquerque Center
15:04 37.1081 -102.5972 71° East 465 535 37,000  Level Albuquerque Center
15:05 37.1522 -102.4453 70° East 474 545 37,000  Level Albuquerque Center
15:06 37.1969 -102.2747 72° East 469 540 37,000  Level Albuquerque Center
15:07 37.2394 -102.1233 71° East 472 543 37,000  Level Albuquerque Center
15:08 37.2847 -101.9439 72° East 480 552 37,100  Climbing Albuquerque Center
15:09 37.3114 -101.8439 71° East 477 549 37,000 -60 Descending Kansas City Center
15:10 37.3575 -101.6714 71° East 470 541 37,000  Level Kansas City Center
15:11 37.3981 -101.5197 71° East 475 547 37,000  Level Kansas City Center
15:12 37.4442 -101.3447 72° East 475 547 37,100  Climbing Kansas City Center
15:13 37.4839 -101.1950 71° East 473 544 37,100 -60 Level Kansas City Center
15:14 37.5311 -101.0172 71° East 474 545 37,000 -60 Descending Kansas City Center
15:15 37.5722 -100.8614 72° East 471 542 37,000  Level Kansas City Center
15:16 37.6106 -100.7044 73° East 466 536 37,000  Level Kansas City Center
15:17 37.6506 -100.5489 72° East 466 536 37,000  Level Kansas City Center
15:18 37.6919 -100.3861 72° East 463 533 37,000  Level Kansas City Center
15:19 37.7306 -100.2378 72° East 465 535 37,000  Level Kansas City Center
15:21 37.7750 -100.0622 72° East 469 540 37,000  Level Kansas City Center
15:22 37.8119 -99.9125 73° East 466 536 37,000  Level Kansas City Center
15:23 37.8553 -99.7372 73° East 468 539 37,000  Level Kansas City Center
15:24 37.8917 -99.5878 73° East 464 534 37,000  Level Kansas City Center
15:25 37.9300 -99.4236 73° East 466 536 37,000  Level Kansas City Center
15:26 37.9672 -99.2653 73° East 467 537 37,000  Level Kansas City Center
15:27 38.0053 -99.1097 73° East 463 533 37,000  Level Kansas City Center
15:28 38.0433 -98.9522 73° East 466 536 37,000  Level Kansas City Center
15:29 38.0875 -98.7644 73° East 463 533 37,000  Level Kansas City Center
15:30 38.1258 -98.6089 73° East 462 532 37,000  Level Kansas City Center
15:31 38.1642 -98.4489 73° East 469 540 37,000  Level Kansas City Center
15:32 38.2000 -98.2906 74° East 463 533 37,000  Level Kansas City Center
15:33 38.2364 -98.1336 74° East 459 528 37,000  Level Kansas City Center
15:34 38.2722 -97.9772 74° East 457 526 37,000  Level Kansas City Center
15:35 38.3086 -97.8208 73° East 455 524 37,000  Level Kansas City Center
15:36 38.3453 -97.6647 73° East 457 526 37,000  Level Kansas City Center
15:37 38.3878 -97.4778 74° East 455 524 37,000  Level Kansas City Center
15:38 38.4231 -97.3217 74° East 457 526 37,000  Level Kansas City Center
15:39 38.4589 -97.1636 74° East 456 525 37,000  Level Kansas City Center
15:40 38.4942 -97.0036 74° East 453 521 37,000  Level Kansas City Center
15:41 38.5294 -96.8419 74° East 454 522 37,000  Level Kansas City Center
15:42 38.5639 -96.6817 75° East 451 519 37,000  Level Kansas City Center
15:43 38.5986 -96.5225 74° East 450 518 37,000  Level Kansas City Center
15:44 38.6317 -96.3622 75° East 448 516 37,000  Level Kansas City Center
15:45 38.6661 -96.2031 74° East 448 516 37,000  Level Kansas City Center
15:46 38.6964 -96.0561 75° East 446 513 37,000  Level Kansas City Center
15:47 38.7300 -95.8964 75° East 445 512 37,000  Level Kansas City Center
15:48 38.7656 -95.7264 75° East 455 524 37,000  Level Kansas City Center
15:49 38.7947 -95.5828 75° East 446 513 37,000  Level Kansas City Center
15:50 38.8303 -95.4131 75° East 443 510 37,000  Level Kansas City Center
15:51 38.8603 -95.2683 75° East 441 507 37,000  Level Kansas City Center
15:53 38.8944 -95.0981 75° East 444 511 37,000  Level Kansas City Center
15:54 38.9242 -94.9522 75° East 444 511 37,000  Level Kansas City Center
15:55 38.9586 -94.7806 75° East 448 516 37,000  Level Kansas City Center
15:56 38.9883 -94.6325 75° East 447 514 37,000  Level Kansas City Center
15:57 39.0167 -94.4847 76° East 447 514 37,100  Climbing Kansas City Center
15:58 39.0486 -94.3108 77° East 449 517 37,000 -60 Descending Kansas City Center
15:59 39.0772 -94.1622 76° East 449 517 37,000  Level Kansas City Center
16:00 39.1103 -93.9881 76° East 450 518 37,000  Level Kansas City Center
16:01 39.1392 -93.8381 76° East 451 519 37,000  Level Kansas City Center
16:02 39.1708 -93.6631 77° East 452 520 37,000  Level Kansas City Center
16:03 39.1994 -93.5133 76° East 452 520 37,100  Climbing Kansas City Center
16:04 39.2303 -93.3456 77° East 472 543 37,100 -60 Level Kansas City Center
16:05 39.2589 -93.1906 77° East 459 528 37,000  Descending Kansas City Center
16:06 39.2875 -93.0400 76° East 443 510 37,100  Climbing Kansas City Center
16:07 39.3200 -92.8467 78° East 460 529 37,000  Descending Kansas City Center
16:08 39.3478 -92.6925 77° East 452 520 37,100  Climbing Kansas City Center
16:09 39.3753 -92.5372 77° East 448 516 37,100  Level Kansas City Center
16:10 39.4033 -92.3853 77° East 444 511 37,100  Level Kansas City Center
16:11 39.4300 -92.2303 77° East 444 511 37,100  Level Kansas City Center
16:12 39.4628 -92.0419 77° East 449 517 37,100  Level Kansas City Center
16:13 39.4908 -91.8814 77° East 457 526 37,100  Level Kansas City Center
16:14 39.5175 -91.7286 77° East 447 514 37,100  Level Kansas City Center
16:15 39.5422 -91.5731 78° East 445 512 37,100  Level Kansas City Center
16:16 39.5672 -91.4172 78° East 446 513 37,100  Level Kansas City Center
16:17 39.5975 -91.2317 78° East 444 511 37,100  Level Kansas City Center
16:18 39.6233 -91.0700 78° East 450 518 37,100  Level Kansas City Center
16:19 39.6500 -90.9072 78° East 456 525 37,100 -180 Level Kansas City Center
16:20 39.6756 -90.7489 78° East 452 520 36,800 -600 Descending Kansas City Center
16:21 39.7006 -90.5903 78° East 450 518 35,900 -840 Descending Kansas City Center
16:22 39.7250 -90.4369 78° East 444 511 35,100 -480 Descending Kansas City Center
16:23 39.7525 -90.2619 78° East 430 495 35,000 -60 Descending Kansas City Center
16:25 39.7758 -90.1219 78° East 417 480 35,000  Level Kansas City Center
16:26 39.7967 -89.9803 79° East 408 470 35,000  Level Kansas City Center
16:27 39.8172 -89.8419 79° East 398 458 35,000 -300 Level Kansas City Center
16:28 39.8389 -89.7014 79° East 398 458 34,500 -600 Descending Kansas City Center
16:29 39.8442 -89.5522 87° East 411 473 33,800 -840 Descending Kansas City Center
16:30 39.8433 -89.3817 90° East 401 461 32,800 -960 Descending Kansas City Center
16:31 39.8447 -89.2450 89° East 389 448 31,900 -900 Descending Kansas City Center
16:32 39.8450 -89.1094 90° East 380 437 31,000 -960 Descending Kansas City Center
16:33 39.8447 -88.9750 90° East 375 432 30,000 -900 Descending Kansas City Center
16:34 39.8461 -88.8422 89° East 370 426 29,200 -1,200 Descending Kansas City Center
16:35 39.8467 -88.7094 90° East 369 425 27,600 -1,800 Descending Kansas City Center
16:36 39.8469 -88.5414 90° East 383 441 25,600 -1,500 Descending Kansas City Center
16:37 39.8442 -88.4008 91° East 389 448 24,500 -780 Descending Kansas City Center
16:38 39.8447 -88.2644 90° East 383 441 24,000 -300 Descending Kansas City Center
16:39 39.8439 -88.1378 90° East 372 428 24,000 60 Level Kansas City Center
16:39 39.8428 -88.0794 91° East 365 420 24,100  Climbing Indianapolis Center
16:40 39.8411 -87.9469 91° East 364 419 24,000 -540 Descending Indianapolis Center
16:41 39.8406 -87.8119 90° East 370 426 23,000 -1,260 Descending Indianapolis Center
16:42 39.8386 -87.6786 91° East 368 423 21,500 -1,560 Descending Indianapolis Center
16:43 39.8364 -87.5461 91° East 365 420 19,900 -1,500 Descending Indianapolis Center
16:44 39.8358 -87.4164 90° East 358 412 18,400 -1,500 Descending Indianapolis Center
16:45 39.8328 -87.2878 92° East 355 409 16,800 -1,620 Descending Indianapolis Center
16:46 39.8322 -87.1644 90° East 343 395 15,100 -2,040 Descending Indianapolis Center
16:47 39.8303 -87.0431 91° East 336 387 12,700 -1,500 Descending Indianapolis Center
16:49 39.8258 -86.9169 93° East 298 343 12,000 -1,200 Descending Indianapolis Center
16:50 39.8211 -86.8203 94° East 268 308 10,300 -1,680 Descending Indianapolis Center
16:51 39.8228 -86.7208 89° East 270 311 8,600 -1,560 Descending Indianapolis Center
16:52 39.8192 -86.6264 93° East 263 303 7,200 -780 Descending Indianapolis Center
16:53 39.8172 -86.5389 92° East 246 283 7,000 -60 Descending Indianapolis Center
16:54 39.8183 -86.4508 89° East 241 277 7,100  Climbing Indianapolis Center
16:55 39.7639 -86.4042 147° Southeast 253 291 7,100 -780 Level Indianapolis Center
16:56 39.7089 -86.4492 212° Southwest 244 281 5,600 -1,320 Descending Indianapolis Center
16:57 39.6603 -86.5181 228° Southwest 229 264 4,400 -720 Descending Indianapolis Center
16:58 39.6206 -86.5744 228° Southwest 218 251 4,200 -180 Descending Indianapolis Center
16:59 39.5642 -86.5547 165° South 221 254 4,100 -300 Descending Indianapolis Center
17:00 39.5578 -86.4842 97° East 217 250 3,700 -300 Descending Indianapolis Center
17:01 39.5939 -86.4392 44° Northeast 189 217 3,500 -360 Descending Indianapolis Center
17:02 39.6278 -86.3992 42° Northeast 175 201 3,000 -720 Descending Indianapolis Center
17:03 39.6500 -86.3667 48° Northeast 146 168 2,300 -840 Descending Indianapolis TRACON
17:04 39.6833 -86.3333 38° Northeast 146 168 1,600 -480 Descending Indianapolis TRACON
17:06 39.7158 -86.2839 49° Northeast 56 64 800 -240 Descending Indianapolis Center
17:07 39.7189 -86.2783 54° Northeast 29 33 800  Level Indianapolis Center
17:08 39.7239 -86.2711 48° Northeast 28 32 800  Level Indianapolis Center
17:09 39.7261 -86.2728 330° Northwest 17 20 800  Level Indianapolis Center
17:10 39.7264 -86.2728 360° North 10 12 800  Level Indianapolis Center